Time,TemperatureF,DewpointF,PressureIn,WindDirection,WindDirectionDegrees,WindSpeedMPH,WindSpeedGustMPH,Humidity,HourlyPrecipIn,Conditions,Clouds,dailyrainin,SolarRadiationWatts/m^2,SoftwareType,DateUTC
2013-03-03 00:04:00,28.4,26.6,30.02,East,100,7.0,9.0,93,0.00,,CLR,0.00,0.00,VWS V14.00,2013-03-03 06:04:00,
2013-03-03 00:09:00,28.5,26.7,30.02,East,101,8.0,10.0,93,0.00,,CLR,0.00,0.00,VWS V14.00,2013-03-03 06:09:00,
2013-03-03 00:14:00,28.5,26.7,30.02,ESE,102,7.0,10.0,93,0.00,,CLR,0.00,0.00,VWS V14.00,2013-03-03 06:14:00,
2013-03-03 00:19:00,28.5,26.7,30.02,ESE,102,5.0,10.0,93,0.00,,CLR,0.00,0.00,VWS V14.00,2013-03-03 06:19:00,
2013-03-03 00:25:00,28.3,26.5,30.01,ESE,102,7.0,10.0,93,0.00,,CLR,0.00,0.00,VWS V14.00,2013-03-03 06:25:00,
2013-03-03 00:30:00,28.3,26.5,30.01,ESE,102,5.0,8.0,93,0.00,,CLR,0.00,0.00,VWS V14.00,2013-03-03 06:30:00,
2013-03-03 00:35:00,28.3,26.5,30.02,ESE,102,4.0,8.0,93,0.00,,CLR,0.00,0.00,VWS V14.00,2013-03-03 06:35:00,
2013-03-03 00:40:00,28.3,26.5,30.02,ESE,102,4.0,8.0,93,0.00,,,0.00,0.00,VWS V14.00,2013-03-03 06:40:00,
2013-03-03 00:45:00,28.3,26.5,30.01,ESE,102,4.0,8.0,93,0.00,,,0.00,0.00,VWS V14.00,2013-03-03 06:45:00,
2013-03-03 00:50:00,28.2,26.4,30.01,ESE,102,5.0,8.0,93,0.00,,,0.00,0.00,VWS V14.00,2013-03-03 06:50:00,
2013-03-03 00:55:00,28.1,26.3,30.01,ESE,102,3.0,8.0,93,0.00,,,0.00,0.00,VWS V14.00,2013-03-03 06:55:00,
2013-03-03 01:00:00,28.0,26.2,30.01,ESE,102,5.0,7.0,93,0.00,,,0.00,0.00,VWS V14.00,2013-03-03 07:00:00,
2013-03-03 01:05:00,28.0,26.2,30.00,ESE,102,5.0,9.0,93,0.00,,,0.00,0.00,VWS V14.00,2013-03-03 07:05:00,
2013-03-03 01:10:00,27.9,26.1,30.00,ESE,102,7.0,9.0,93,0.00,,,0.00,0.00,VWS V14.00,2013-03-03 07:10:00,
2013-03-03 01:15:00,27.9,26.1,30.00,ESE,102,7.0,9.0,93,0.00,,,0.00,0.00,VWS V14.00,2013-03-03 07:15:00,
2013-03-03 01:20:00,27.8,26.0,30.00,ESE,102,7.0,10.0,93,0.00,,,0.00,0.00,VWS V14.00,2013-03-03 07:20:00,
2013-03-03 01:25:00,27.8,26.0,30.00,ESE,102,9.0,10.0,93,0.00,,,0.00,0.00,VWS V14.00,2013-03-03 07:25:00,
2013-03-03 01:30:00,27.8,26.0,30.00,ESE,105,8.0,9.0,93,0.00,,,0.00,0.00,VWS V14.00,2013-03-03 07:30:00,
2013-03-03 01:35:00,27.8,26.3,30.00,ESE,105,7.0,10.0,94,0.00,,,0.00,0.00,VWS V14.00,2013-03-03 07:35:00,
2013-03-03 01:40:00,27.6,25.8,30.00,ESE,105,5.0,10.0,93,0.00,,,0.00,0.00,VWS V14.00,2013-03-03 07:40:00,
2013-03-03 01:45:00,27.6,25.8,30.00,ESE,105,5.0,10.0,93,0.00,,,0.00,0.00,VWS V14.00,2013-03-03 07:45:00,
2013-03-03 01:50:00,27.6,25.8,30.00,ESE,105,8.0,10.0,93,0.00,,,0.00,0.00,VWS V14.00,2013-03-03 07:50:00,
2013-03-03 01:55:00,27.6,26.1,30.00,ESE,105,9.0,10.0,94,0.00,,,0.00,0.00,VWS V14.00,2013-03-03 07:55:00,
2013-03-03 02:00:00,27.6,26.1,29.99,ESE,107,7.0,9.0,94,0.00,,,0.00,0.00,VWS V14.00,2013-03-03 08:00:00,
2013-03-03 02:05:00,27.6,26.1,29.99,ESE,109,9.0,10.0,94,0.00,,,0.00,0.00,VWS V14.00,2013-03-03 08:05:00,
2013-03-03 02:10:00,27.6,26.1,29.99,ESE,109,9.0,11.0,94,0.00,,,0.00,0.00,VWS V14.00,2013-03-03 08:10:00,
2013-03-03 02:15:00,27.6,26.1,29.99,ESE,109,9.0,11.0,94,0.00,,,0.00,0.00,VWS V14.00,2013-03-03 08:15:00,
2013-03-03 02:20:00,27.6,26.1,29.99,ESE,109,9.0,11.0,94,0.00,,,0.00,0.00,VWS V14.00,2013-03-03 08:20:00,
2013-03-03 02:25:00,27.6,26.1,29.98,ESE,109,9.0,11.0,94,0.00,,,0.00,0.00,VWS V14.00,2013-03-03 08:25:00,
2013-03-03 02:30:00,27.5,26.0,29.98,ESE,109,9.0,11.0,94,0.00,,,0.00,0.00,VWS V14.00,2013-03-03 08:30:00,
2013-03-03 02:36:00,27.5,26.0,29.98,ESE,103,8.0,11.0,94,0.00,,,0.00,0.00,VWS V14.00,2013-03-03 08:36:00,
2013-03-03 02:41:00,27.5,26.0,29.98,ESE,105,9.0,11.0,94,0.00,,,0.00,0.00,VWS V14.00,2013-03-03 08:41:00,
2013-03-03 02:46:00,27.4,25.9,29.97,East,100,9.0,11.0,94,0.00,,,0.00,0.00,VWS V14.00,2013-03-03 08:46:00,
2013-03-03 02:51:00,27.4,25.9,29.97,East,99,10.0,13.0,94,0.00,,,0.00,0.00,VWS V14.00,2013-03-03 08:51:00,
2013-03-03 02:56:00,27.4,25.9,29.97,East,100,8.0,13.0,94,0.00,,,0.00,0.00,VWS V14.00,2013-03-03 08:56:00,
2013-03-03 03:01:00,27.3,25.8,29.96,ESE,103,11.0,11.0,94,0.00,,,0.00,0.00,VWS V14.00,2013-03-03 09:01:00,
2013-03-03 03:06:00,27.4,25.9,29.96,ESE,102,10.0,12.0,94,0.00,,,0.00,0.00,VWS V14.00,2013-03-03 09:06:00,
2013-03-03 03:11:00,27.4,25.9,29.96,ESE,105,9.0,12.0,94,0.00,,,0.00,0.00,VWS V14.00,2013-03-03 09:11:00,
2013-03-03 03:16:00,27.3,25.8,29.96,ESE,107,10.0,12.0,94,0.00,,,0.00,0.00,VWS V14.00,2013-03-03 09:16:00,
2013-03-03 03:21:00,27.1,25.6,29.95,ESE,103,7.0,12.0,94,0.00,,,0.00,0.00,VWS V14.00,2013-03-03 09:21:00,
2013-03-03 03:26:00,27.0,25.5,29.95,ESE,102,4.0,12.0,94,0.00,,,0.00,0.00,VWS V14.00,2013-03-03 09:26:00,
2013-03-03 03:31:00,27.0,25.5,29.95,ESE,102,8.0,10.0,94,0.00,,,0.00,0.00,VWS V14.00,2013-03-03 09:31:00,
2013-03-03 03:36:00,26.9,25.4,29.95,ESE,103,9.0,11.0,94,0.00,,,0.00,0.00,VWS V14.00,2013-03-03 09:36:00,
2013-03-03 03:41:00,26.9,25.4,29.95,ESE,103,8.0,11.0,94,0.00,,,0.00,0.00,VWS V14.00,2013-03-03 09:41:00,
2013-03-03 03:46:00,26.8,25.3,29.94,East,101,9.0,11.0,94,0.00,,,0.00,0.00,VWS V14.00,2013-03-03 09:46:00,
2013-03-03 03:51:00,26.8,25.3,29.94,East,100,6.0,11.0,94,0.00,,,0.00,0.00,VWS V14.00,2013-03-03 09:51:00,
2013-03-03 03:56:00,26.8,25.3,29.94,East,98,10.0,11.0,94,0.00,,,0.00,0.00,VWS V14.00,2013-03-03 09:56:00,
2013-03-03 04:01:00,26.8,25.3,29.94,East,98,9.0,9.0,94,0.00,,,0.00,0.00,VWS V14.00,2013-03-03 10:01:00,
2013-03-03 04:06:00,26.7,25.2,29.93,East,98,8.0,10.0,94,0.00,,,0.00,0.00,VWS V14.00,2013-03-03 10:06:00,
2013-03-03 04:11:00,26.6,25.1,29.93,East,92,8.0,10.0,94,0.00,,,0.00,0.00,VWS V14.00,2013-03-03 10:11:00,
2013-03-03 04:16:00,26.7,25.2,29.93,East,92,8.0,10.0,94,0.00,,,0.00,0.00,VWS V14.00,2013-03-03 10:16:00,
2013-03-03 04:21:00,26.7,25.2,29.93,East,90,10.0,10.0,94,0.00,,,0.00,0.00,VWS V14.00,2013-03-03 10:21:00,
2013-03-03 04:26:00,26.8,25.3,29.93,East,90,7.0,10.0,94,0.00,,,0.00,0.00,VWS V14.00,2013-03-03 10:26:00,
2013-03-03 04:31:00,26.9,25.4,29.92,East,90,7.0,9.0,94,0.00,,,0.00,0.00,VWS V14.00,2013-03-03 10:31:00,
2013-03-03 04:36:00,27.0,25.5,29.92,East,90,9.0,9.0,94,0.00,,,0.00,0.00,VWS V14.00,2013-03-03 10:36:00,
2013-03-03 04:42:00,27.0,25.5,29.92,East,90,9.0,10.0,94,0.00,,,0.00,0.00,VWS V14.00,2013-03-03 10:42:00,
2013-03-03 04:47:00,27.0,25.5,29.92,East,90,8.0,10.0,94,0.00,,,0.00,0.00,VWS V14.00,2013-03-03 10:47:00,
2013-03-03 04:52:00,27.1,25.6,29.92,East,90,9.0,10.0,94,0.00,,,0.00,0.00,VWS V14.00,2013-03-03 10:52:00,
2013-03-03 04:57:00,27.1,25.6,29.92,East,90,9.0,10.0,94,0.00,,,0.00,0.00,VWS V14.00,2013-03-03 10:57:00,
2013-03-03 05:02:00,27.1,25.6,29.92,East,93,8.0,11.0,94,0.00,,,0.00,0.00,VWS V14.00,2013-03-03 11:02:00,
2013-03-03 05:07:00,26.9,25.4,29.92,East,96,11.0,11.0,94,0.00,,,0.00,0.00,VWS V14.00,2013-03-03 11:07:00,
2013-03-03 05:12:00,26.8,25.3,29.92,East,99,8.0,13.0,94,0.00,,,0.00,0.00,VWS V14.00,2013-03-03 11:12:00,
2013-03-03 05:17:00,26.6,25.1,29.91,East,101,9.0,13.0,94,0.00,,,0.00,0.00,VWS V14.00,2013-03-03 11:17:00,
2013-03-03 05:22:00,26.6,25.1,29.91,East,100,9.0,14.0,94,0.00,,,0.00,0.00,VWS V14.00,2013-03-03 11:22:00,
2013-03-03 05:27:00,26.5,25.0,29.91,ESE,105,11.0,14.0,94,0.00,,,0.00,0.00,VWS V14.00,2013-03-03 11:27:00,
2013-03-03 05:32:00,26.4,24.9,29.91,ESE,108,9.0,11.0,94,0.00,,,0.00,0.00,VWS V14.00,2013-03-03 11:32:00,
2013-03-03 05:37:00,26.3,24.8,29.91,ESE,107,9.0,11.0,94,0.00,,,0.00,0.00,VWS V14.00,2013-03-03 11:37:00,
2013-03-03 05:42:00,26.2,24.7,29.91,ESE,109,10.0,12.0,94,0.00,,,0.00,0.00,VWS V14.00,2013-03-03 11:42:00,
2013-03-03 05:47:00,26.2,24.7,29.90,ESE,109,10.0,12.0,94,0.00,,,0.00,0.00,VWS V14.00,2013-03-03 11:47:00,
2013-03-03 05:52:00,26.3,24.8,29.90,ESE,109,9.0,12.0,94,0.00,,,0.00,0.00,VWS V14.00,2013-03-03 11:52:00,
2013-03-03 05:57:00,26.3,24.8,29.90,ESE,109,11.0,12.0,94,0.00,,,0.00,0.00,VWS V14.00,2013-03-03 11:57:00,
2013-03-03 06:02:00,26.3,24.8,29.90,ESE,109,10.0,13.0,94,0.00,,,0.00,0.00,VWS V14.00,2013-03-03 12:02:00,
2013-03-03 06:07:00,26.2,24.7,29.90,ESE,109,10.0,13.0,94,0.00,,,0.00,0.00,VWS V14.00,2013-03-03 12:07:00,
2013-03-03 06:12:00,26.3,24.8,29.89,ESE,109,9.0,13.0,94,0.00,,,0.00,0.00,VWS V14.00,2013-03-03 12:12:00,
2013-03-03 06:17:00,26.2,24.7,29.89,ESE,111,12.0,13.0,94,0.00,,,0.00,0.00,VWS V14.00,2013-03-03 12:17:00,
2013-03-03 06:23:00,26.2,24.7,29.89,ESE,109,10.0,14.0,94,0.00,,,0.00,0.00,VWS V14.00,2013-03-03 12:23:00,
2013-03-03 06:28:00,26.1,24.6,29.89,ESE,108,12.0,14.0,94,0.00,,,0.00,0.00,VWS V14.00,2013-03-03 12:28:00,
2013-03-03 06:33:00,26.1,24.6,29.88,ESE,107,9.0,13.0,94,0.00,,,0.00,0.00,VWS V14.00,2013-03-03 12:33:00,
2013-03-03 06:38:00,26.2,24.7,29.88,ESE,110,8.0,13.0,94,0.00,,,0.00,0.00,VWS V14.00,2013-03-03 12:38:00,
2013-03-03 06:43:00,26.4,24.9,29.89,ESE,117,11.0,13.0,94,0.00,,,0.00,0.00,VWS V14.00,2013-03-03 12:43:00,
2013-03-03 06:48:00,26.4,24.9,29.88,ESE,114,13.0,13.0,94,0.00,,,0.00,0.00,VWS V14.00,2013-03-03 12:48:00,
2013-03-03 06:53:00,26.4,24.9,29.88,ESE,118,15.0,15.0,94,0.00,,,0.00,0.00,VWS V14.00,2013-03-03 12:53:00,
2013-03-03 06:58:00,26.3,24.8,29.88,ESE,117,11.0,15.0,94,0.00,,,0.00,0.00,VWS V14.00,2013-03-03 12:58:00,
2013-03-03 07:03:00,26.3,24.8,29.88,ESE,119,11.0,15.0,94,0.00,,,0.00,0.00,VWS V14.00,2013-03-03 13:03:00,
2013-03-03 07:08:00,26.3,24.8,29.87,ESE,121,10.0,15.0,94,0.00,,,0.00,0.00,VWS V14.00,2013-03-03 13:08:00,
2013-03-03 07:13:00,26.2,24.5,29.87,SE,125,13.0,16.0,93,0.00,,FEW120,0.00,0.00,VWS V14.00,2013-03-03 13:13:00,
2013-03-03 07:18:00,26.1,24.4,29.87,ESE,112,12.0,16.0,93,0.00,,FEW120,0.00,0.00,VWS V14.00,2013-03-03 13:18:00,
2013-03-03 07:23:00,26.1,24.4,29.87,ESE,113,15.0,16.0,93,0.00,,FEW120,0.00,5.00,VWS V14.00,2013-03-03 13:23:00,
2013-03-03 07:28:00,26.1,24.4,29.87,ESE,112,12.0,16.0,93,0.00,,FEW120,0.00,9.00,VWS V14.00,2013-03-03 13:28:00,
2013-03-03 07:33:00,26.1,24.4,29.87,ESE,117,13.0,16.0,93,0.00,,FEW120,0.00,12.00,VWS V14.00,2013-03-03 13:33:00,
2013-03-03 07:38:00,26.1,24.4,29.86,ESE,104,11.0,16.0,93,0.00,,FEW120,0.00,18.00,VWS V14.00,2013-03-03 13:38:00,
2013-03-03 07:43:00,26.0,24.3,29.86,ESE,107,13.0,16.0,93,0.00,,CLR,0.00,26.00,VWS V14.00,2013-03-03 13:43:00,
2013-03-03 07:48:00,26.0,24.3,29.86,ESE,108,13.0,17.0,93,0.00,,CLR,0.00,35.00,VWS V14.00,2013-03-03 13:48:00,
2013-03-03 07:53:00,26.0,24.3,29.86,ESE,104,12.0,18.0,93,0.00,,CLR,0.00,42.00,VWS V14.00,2013-03-03 13:53:00,
2013-03-03 07:58:00,26.1,24.4,29.86,ESE,104,13.0,18.0,93,0.00,,CLR,0.00,47.00,VWS V14.00,2013-03-03 13:58:00,
2013-03-03 08:03:00,26.1,24.4,29.85,ESE,103,12.0,16.0,93,0.00,,CLR,0.00,54.00,VWS V14.00,2013-03-03 14:03:00,
2013-03-03 08:08:00,26.1,24.4,29.85,ESE,103,12.0,16.0,93,0.00,,CLR,0.00,62.00,VWS V14.00,2013-03-03 14:08:00,
2013-03-03 08:13:00,26.1,24.4,29.85,ESE,106,11.0,16.0,93,0.00,,CLR,0.00,67.00,VWS V14.00,2013-03-03 14:13:00,
2013-03-03 08:18:00,26.2,24.5,29.85,ESE,103,13.0,16.0,93,0.00,,CLR,0.00,74.00,VWS V14.00,2013-03-03 14:18:00,
2013-03-03 08:23:00,26.6,25.1,29.85,ESE,116,16.0,17.0,94,0.00,,CLR,0.00,83.00,VWS V14.00,2013-03-03 14:23:00,
2013-03-03 08:28:00,27.0,25.2,29.85,ESE,123,15.0,15.0,93,0.00,,CLR,0.00,93.00,VWS V14.00,2013-03-03 14:28:00,
2013-03-03 08:34:00,27.4,25.6,29.85,ESE,121,11.0,16.0,93,0.00,,CLR,0.00,100.00,VWS V14.00,2013-03-03 14:34:00,
2013-03-03 08:39:00,27.6,25.8,29.85,ESE,122,10.0,17.0,93,0.00,,CLR,0.00,111.00,VWS V14.00,2013-03-03 14:39:00,
2013-03-03 08:44:00,27.8,26.0,29.84,ESE,108,12.0,19.0,93,0.00,,CLR,0.00,120.00,VWS V14.00,2013-03-03 14:44:00,
2013-03-03 08:49:00,28.1,26.1,29.84,ESE,111,16.0,19.0,92,0.00,,CLR,0.00,128.00,VWS V14.00,2013-03-03 14:49:00,
2013-03-03 08:54:00,28.3,26.3,29.84,ESE,119,15.0,19.0,92,0.00,,CLR,0.00,137.00,VWS V14.00,2013-03-03 14:54:00,
2013-03-03 08:59:00,28.4,26.4,29.84,SE,126,13.0,17.0,92,0.00,,CLR,0.00,144.00,VWS V14.00,2013-03-03 14:59:00,
2013-03-03 09:04:00,28.6,26.6,29.84,ESE,118,9.0,17.0,92,0.00,,CLR,0.00,155.00,VWS V14.00,2013-03-03 15:04:00,
2013-03-03 09:09:00,28.8,26.8,29.84,SE,126,13.0,18.0,92,0.00,,CLR,0.00,162.00,VWS V14.00,2013-03-03 15:09:00,
2013-03-03 09:14:00,28.9,26.9,29.84,ESE,122,10.0,18.0,92,0.00,,CLR,0.00,165.00,VWS V14.00,2013-03-03 15:14:00,
2013-03-03 09:19:00,29.1,27.1,29.84,ESE,118,13.0,18.0,92,0.00,,CLR,0.00,171.00,VWS V14.00,2013-03-03 15:19:00,
2013-03-03 09:24:00,29.4,27.1,29.84,SE,125,10.0,18.0,91,0.00,,CLR,0.00,178.00,VWS V14.00,2013-03-03 15:24:00,
2013-03-03 09:29:00,29.6,27.3,29.83,ESE,118,13.0,14.0,91,0.00,,CLR,0.00,181.00,VWS V14.00,2013-03-03 15:29:00,
2013-03-03 09:34:00,29.8,27.5,29.83,ESE,123,12.0,15.0,91,0.00,,CLR,0.00,181.00,VWS V14.00,2013-03-03 15:34:00,
2013-03-03 09:39:00,29.9,27.6,29.83,ESE,120,13.0,16.0,91,0.00,,CLR,0.00,193.00,VWS V14.00,2013-03-03 15:39:00,
2013-03-03 09:44:00,30.1,27.8,29.83,SE,136,14.0,16.0,91,0.00,,CLR,0.00,213.00,VWS V14.00,2013-03-03 15:44:00,
2013-03-03 09:49:00,30.2,27.6,29.83,SE,134,12.0,17.0,90,0.00,,CLR,0.00,225.00,VWS V14.00,2013-03-03 15:49:00,
2013-03-03 09:54:00,30.5,27.9,29.82,SE,125,10.0,17.0,90,0.00,,CLR,0.00,232.00,VWS V14.00,2013-03-03 15:54:00,
2013-03-03 09:59:00,30.6,28.0,29.82,SE,129,14.0,16.0,90,0.00,,CLR,0.00,234.00,VWS V14.00,2013-03-03 15:59:00,
2013-03-03 10:04:00,30.8,28.0,29.82,SE,130,14.0,16.0,89,0.00,,CLR,0.00,232.00,VWS V14.00,2013-03-03 16:04:00,
2013-03-03 10:09:00,30.7,27.9,29.82,SE,133,12.0,17.0,89,0.00,,CLR,0.00,237.00,VWS V14.00,2013-03-03 16:09:00,
2013-03-03 10:14:00,30.8,28.0,29.82,SE,128,12.0,18.0,89,0.00,,CLR,0.00,244.00,VWS V14.00,2013-03-03 16:14:00,
2013-03-03 10:20:00,30.8,28.0,29.81,SE,136,14.0,18.0,89,0.00,,CLR,0.00,258.00,VWS V14.00,2013-03-03 16:20:00,
2013-03-03 10:25:00,30.9,28.0,29.82,SE,134,12.0,18.0,89,0.00,,CLR,0.00,276.00,VWS V14.00,2013-03-03 16:25:00,
2013-03-03 10:30:00,31.2,28.3,29.82,SE,131,12.0,14.0,89,0.00,,CLR,0.00,290.00,VWS V14.00,2013-03-03 16:30:00,
2013-03-03 10:35:00,31.5,28.6,29.82,SE,132,11.0,17.0,89,0.00,,CLR,0.00,288.00,VWS V14.00,2013-03-03 16:35:00,
2013-03-03 10:40:00,31.7,28.8,29.81,SE,125,16.0,17.0,89,0.00,,CLR,0.00,301.00,VWS V14.00,2013-03-03 16:40:00,
2013-03-03 10:45:00,31.8,28.7,29.81,ESE,123,14.0,18.0,88,0.00,,CLR,0.00,330.00,VWS V14.00,2013-03-03 16:45:00,
2013-03-03 10:50:00,32.1,29.2,29.81,SE,128,12.0,18.0,89,0.00,,CLR,0.00,367.00,VWS V14.00,2013-03-03 16:50:00,
2013-03-03 10:55:00,32.3,29.1,29.80,ESE,123,17.0,18.0,88,0.00,,CLR,0.00,367.00,VWS V14.00,2013-03-03 16:55:00,
2013-03-03 11:00:00,32.5,29.4,29.80,ESE,121,11.0,15.0,88,0.00,,CLR,0.00,346.00,VWS V14.00,2013-03-03 17:00:00,
2013-03-03 11:05:00,32.6,29.5,29.80,ESE,113,16.0,17.0,88,0.00,,CLR,0.00,339.00,VWS V14.00,2013-03-03 17:05:00,
2013-03-03 11:10:00,32.6,29.5,29.80,ESE,122,15.0,17.0,88,0.00,,CLR,0.00,330.00,VWS V14.00,2013-03-03 17:10:00,
2013-03-03 11:15:00,32.8,29.6,29.79,SE,132,15.0,18.0,88,0.00,,CLR,0.00,343.00,VWS V14.00,2013-03-03 17:15:00,
2013-03-03 11:20:00,33.1,29.9,29.79,SE,128,14.0,18.0,88,0.00,,CLR,0.00,374.00,VWS V14.00,2013-03-03 17:20:00,
2013-03-03 11:25:00,33.3,30.1,29.79,SE,124,15.0,19.0,88,0.00,,CLR,0.00,446.00,VWS V14.00,2013-03-03 17:25:00,
2013-03-03 11:30:00,33.8,30.6,29.78,SE,125,11.0,16.0,88,0.00,,CLR,0.00,455.00,VWS V14.00,2013-03-03 17:30:00,
2013-03-03 11:35:00,34.1,30.6,29.78,SE,126,14.0,17.0,87,0.00,,CLR,0.00,422.00,VWS V14.00,2013-03-03 17:35:00,
2013-03-03 11:40:00,34.2,30.7,29.78,SE,129,14.0,18.0,87,0.00,,CLR,0.00,429.00,VWS V14.00,2013-03-03 17:40:00,
2013-03-03 11:45:00,34.5,32.4,29.78,SE,131,11.0,21.0,92,0.00,,CLR,0.00,422.00,VWS V14.00,2013-03-03 17:45:00,
2013-03-03 11:50:00,34.9,31.1,29.78,SE,139,18.0,21.0,86,0.00,,CLR,0.00,403.00,VWS V14.00,2013-03-03 17:50:00,
2013-03-03 11:55:00,35.0,31.2,29.77,SE,134,12.0,21.0,86,0.00,,CLR,0.00,383.00,VWS V14.00,2013-03-03 17:55:00,
2013-03-03 12:00:00,35.1,31.3,29.77,SE,142,17.0,18.0,86,0.00,,CLR,0.00,359.00,VWS V14.00,2013-03-03 18:00:00,
2013-03-03 12:05:00,35.1,31.0,29.76,SE,144,17.0,21.0,85,0.00,,CLR,0.00,366.00,VWS V14.00,2013-03-03 18:05:00,
2013-03-03 12:10:00,35.1,31.0,29.76,SE,145,18.0,21.0,85,0.00,,CLR,0.00,378.00,VWS V14.00,2013-03-03 18:10:00,
2013-03-03 12:15:00,35.3,31.2,29.76,SE,134,15.0,21.0,85,0.00,,CLR,0.00,404.00,VWS V14.00,2013-03-03 18:15:00,
2013-03-03 12:20:00,35.4,31.4,29.76,SE,132,18.0,21.0,85,0.00,,CLR,0.00,406.00,VWS V14.00,2013-03-03 18:20:00,
2013-03-03 12:26:00,35.5,31.5,29.76,SE,135,15.0,21.0,85,0.00,,CLR,0.00,380.00,VWS V14.00,2013-03-03 18:26:00,
2013-03-03 12:31:00,35.5,31.5,29.76,SE,131,13.0,18.0,85,0.00,,CLR,0.00,387.00,VWS V14.00,2013-03-03 18:31:00,
2013-03-03 12:36:00,35.7,31.6,29.75,SE,140,17.0,18.0,85,0.00,,CLR,0.00,390.00,VWS V14.00,2013-03-03 18:36:00,
2013-03-03 12:41:00,35.8,31.5,29.75,SE,128,14.0,20.0,84,0.00,,CLR,0.00,387.00,VWS V14.00,2013-03-03 18:41:00,
2013-03-03 12:46:00,35.9,31.8,29.75,SE,136,11.0,20.0,85,0.00,,CLR,0.00,404.00,VWS V14.00,2013-03-03 18:46:00,
2013-03-03 12:51:00,36.1,31.7,29.75,SE,140,14.0,20.0,84,0.00,,CLR,0.00,413.00,VWS V14.00,2013-03-03 18:51:00,
2013-03-03 12:56:00,36.2,31.8,29.75,SE,129,14.0,21.0,84,0.00,,CLR,0.00,420.00,VWS V14.00,2013-03-03 18:56:00,
2013-03-03 13:01:00,36.2,31.8,29.74,SE,134,12.0,19.0,84,0.00,,CLR,0.00,406.00,VWS V14.00,2013-03-03 19:01:00,
2013-03-03 13:06:00,36.4,32.0,29.74,ESE,117,12.0,19.0,84,0.00,,CLR,0.00,445.00,VWS V14.00,2013-03-03 19:06:00,
2013-03-03 13:11:00,36.4,32.0,29.74,SE,128,11.0,19.0,84,0.00,,CLR,0.00,425.00,VWS V14.00,2013-03-03 19:11:00,
2013-03-03 13:16:00,36.3,31.9,29.74,SE,135,16.0,19.0,84,0.00,,CLR,0.00,322.00,VWS V14.00,2013-03-03 19:16:00,
2013-03-03 13:21:00,36.4,32.0,29.74,SE,135,11.0,19.0,84,0.00,,CLR,0.00,480.00,VWS V14.00,2013-03-03 19:21:00,
2013-03-03 13:26:00,36.7,32.0,29.74,SE,130,12.0,19.0,83,0.00,,CLR,0.00,420.00,VWS V14.00,2013-03-03 19:26:00,
2013-03-03 13:31:00,36.8,32.1,29.74,SE,135,11.0,18.0,83,0.00,,CLR,0.00,353.00,VWS V14.00,2013-03-03 19:31:00,
2013-03-03 13:36:00,36.9,32.2,29.73,SE,130,10.0,18.0,83,0.00,,CLR,0.00,246.00,VWS V14.00,2013-03-03 19:36:00,
2013-03-03 13:41:00,36.7,32.3,29.73,SE,143,13.0,18.0,84,0.00,,SCT110,0.00,239.00,VWS V14.00,2013-03-03 19:41:00,
2013-03-03 13:46:00,37.2,32.8,29.73,SE,140,11.0,18.0,84,0.00,,SCT110,0.00,290.00,VWS V14.00,2013-03-03 19:46:00,
2013-03-03 13:51:00,37.2,31.9,29.73,SSE,155,13.0,18.0,81,0.00,,SCT110,0.00,251.00,VWS V14.00,2013-03-03 19:51:00,
2013-03-03 13:56:00,37.3,32.0,29.73,SSE,161,12.0,18.0,81,0.00,,SCT110,0.00,239.00,VWS V14.00,2013-03-03 19:56:00,
2013-03-03 14:01:00,37.1,31.8,29.72,ESE,123,13.0,17.0,81,0.00,,SCT110,0.00,239.00,VWS V14.00,2013-03-03 20:01:00,
2013-03-03 14:06:00,37.2,31.9,29.72,SSE,149,12.0,17.0,81,0.00,,SCT110,0.00,411.00,VWS V14.00,2013-03-03 20:06:00,
2013-03-03 14:11:00,37.5,32.2,29.72,SE,133,9.0,17.0,81,0.00,,SCT110,0.00,418.00,VWS V14.00,2013-03-03 20:11:00,
2013-03-03 14:16:00,37.6,32.3,29.72,SSE,150,15.0,17.0,81,0.00,,SCT110,0.00,309.00,VWS V14.00,2013-03-03 20:16:00,
2013-03-03 14:21:00,37.5,32.2,29.72,SE,146,10.0,17.0,81,0.00,,SCT110,0.00,265.00,VWS V14.00,2013-03-03 20:21:00,
2013-03-03 14:27:00,37.5,32.2,29.71,SE,137,11.0,17.0,81,0.00,,SCT110,0.00,427.00,VWS V14.00,2013-03-03 20:27:00,
2013-03-03 14:32:00,37.8,32.5,29.71,SE,145,12.0,15.0,81,0.00,,SCT110,0.00,276.00,VWS V14.00,2013-03-03 20:32:00,
2013-03-03 14:37:00,37.8,32.5,29.71,SSE,155,14.0,15.0,81,0.00,,SCT110,0.00,276.00,VWS V14.00,2013-03-03 20:37:00,
2013-03-03 14:42:00,37.8,32.5,29.71,SE,140,8.0,16.0,81,0.00,,SCT110,0.00,308.00,VWS V14.00,2013-03-03 20:42:00,
2013-03-03 14:47:00,38.1,33.1,29.70,SE,142,7.0,16.0,82,0.00,,SCT110,0.00,322.00,VWS V14.00,2013-03-03 20:47:00,
2013-03-03 14:52:00,38.5,33.2,29.70,SE,138,12.0,16.0,81,0.00,,OVC100,0.00,316.00,VWS V14.00,2013-03-03 20:52:00,
2013-03-03 14:57:00,38.6,33.0,29.70,SE,146,11.0,16.0,80,0.00,,OVC100,0.00,295.00,VWS V14.00,2013-03-03 20:57:00,
2013-03-03 15:02:00,38.4,32.5,29.70,SSE,148,11.0,12.0,79,0.00,,OVC100,0.00,276.00,VWS V14.00,2013-03-03 21:02:00,
2013-03-03 15:07:00,38.4,33.1,29.70,SE,134,13.0,13.0,81,0.00,,OVC100,0.00,294.00,VWS V14.00,2013-03-03 21:07:00,
2013-03-03 15:12:00,38.4,33.1,29.70,SSE,152,10.0,13.0,81,0.00,,OVC100,0.00,301.00,VWS V14.00,2013-03-03 21:12:00,
2013-03-03 15:17:00,38.6,33.3,29.71,SE,138,10.0,13.0,81,0.00,,OVC100,0.00,283.00,VWS V14.00,2013-03-03 21:17:00,
2013-03-03 15:22:00,38.5,32.9,29.70,SSE,148,11.0,14.0,80,0.00,,OVC100,0.00,265.00,VWS V14.00,2013-03-03 21:22:00,
2013-03-03 15:27:00,38.5,32.9,29.70,SE,128,11.0,15.0,80,0.00,,OVC100,0.00,255.00,VWS V14.00,2013-03-03 21:27:00,
2013-03-03 15:32:00,38.4,32.8,29.70,SE,145,12.0,14.0,80,0.00,,OVC100,0.00,237.00,VWS V14.00,2013-03-03 21:32:00,
2013-03-03 15:37:00,38.4,32.8,29.70,SE,133,10.0,17.0,80,0.00,,OVC100,0.00,227.00,VWS V14.00,2013-03-03 21:37:00,
2013-03-03 15:42:00,38.4,32.8,29.70,SSE,162,12.0,17.0,80,0.00,,SCT110,0.00,211.00,VWS V14.00,2013-03-03 21:42:00,
2013-03-03 15:47:00,38.5,32.9,29.70,SSE,156,10.0,17.0,80,0.00,,SCT110,0.00,193.00,VWS V14.00,2013-03-03 21:47:00,
2013-03-03 15:52:00,38.5,32.9,29.70,SSE,147,11.0,17.0,80,0.00,,SCT110,0.00,174.00,VWS V14.00,2013-03-03 21:52:00,
2013-03-03 15:57:00,38.4,32.8,29.70,SE,142,9.0,17.0,80,0.00,,SCT110,0.00,153.00,VWS V14.00,2013-03-03 21:57:00,
2013-03-03 16:02:00,38.4,33.1,29.70,SE,146,12.0,14.0,81,0.00,,SCT110,0.00,134.00,VWS V14.00,2013-03-03 22:02:00,
2013-03-03 16:07:00,38.2,32.9,29.70,ESE,113,10.0,14.0,81,0.00,,SCT110,0.00,114.00,VWS V14.00,2013-03-03 22:07:00,
2013-03-03 16:12:00,37.7,33.0,29.70,ESE,105,9.0,14.0,83,0.00,,SCT110,0.00,102.00,VWS V14.00,2013-03-03 22:12:00,
2013-03-03 16:17:00,37.3,32.9,29.71,ESE,113,7.0,14.0,84,0.00,,SCT110,0.00,93.00,VWS V14.00,2013-03-03 22:17:00,
2013-03-03 16:23:00,36.8,32.4,29.70,ESE,119,9.0,14.0,84,0.00,,SCT110,0.00,83.00,VWS V14.00,2013-03-03 22:23:00,
2013-03-03 16:28:00,36.3,32.2,29.70,ESE,119,12.0,14.0,85,0.00,,SCT110,0.00,70.00,VWS V14.00,2013-03-03 22:28:00,
2013-03-03 16:33:00,36.0,31.9,29.70,ESE,113,9.0,14.0,85,0.00,,BKN110,0.00,62.00,VWS V14.00,2013-03-03 22:33:00,
2013-03-03 16:38:00,35.8,32.0,29.70,ESE,113,11.0,14.0,86,0.00,,BKN110,0.00,56.00,VWS V14.00,2013-03-03 22:38:00,
2013-03-03 16:43:00,35.5,31.7,29.70,ESE,109,13.0,15.0,86,0.00,,BKN110,0.00,53.00,VWS V14.00,2013-03-03 22:43:00,
2013-03-03 16:48:00,35.3,31.8,29.70,ESE,111,12.0,15.0,87,0.00,,BKN110,0.00,47.00,VWS V14.00,2013-03-03 22:48:00,
2013-03-03 16:53:00,35.2,31.7,29.70,ESE,111,9.0,15.0,87,0.00,,BKN110,0.00,42.00,VWS V14.00,2013-03-03 22:53:00,
2013-03-03 16:58:00,35.0,31.8,29.70,ESE,106,10.0,15.0,88,0.00,,BKN110,0.00,39.00,VWS V14.00,2013-03-03 22:58:00,
2013-03-03 17:03:00,34.9,31.7,29.70,ESE,113,14.0,15.0,88,0.00,,BKN110,0.00,33.00,VWS V14.00,2013-03-03 23:03:00,
2013-03-03 17:08:00,34.8,31.9,29.70,ESE,110,12.0,15.0,89,0.00,,BKN110,0.00,28.00,VWS V14.00,2013-03-03 23:08:00,
2013-03-03 17:13:00,34.7,31.8,29.70,East,101,8.0,15.0,89,0.00,,BKN110,0.00,23.00,VWS V14.00,2013-03-03 23:13:00,
2013-03-03 17:18:00,34.6,32.0,29.70,East,98,8.0,15.0,90,0.00,,BKN110,0.00,21.00,VWS V14.00,2013-03-03 23:18:00,
2013-03-03 17:23:00,34.4,31.8,29.70,East,99,10.0,15.0,90,0.01,,BKN110,0.01,18.00,VWS V14.00,2013-03-03 23:23:00,
2013-03-03 17:28:00,34.2,31.9,29.70,East,101,11.0,15.0,91,0.01,,BKN110,0.01,14.00,VWS V14.00,2013-03-03 23:28:00,
2013-03-03 17:33:00,34.1,31.8,29.70,ESE,103,10.0,16.0,91,0.01,,BKN110,0.01,12.00,VWS V14.00,2013-03-03 23:33:00,
2013-03-03 17:38:00,34.0,31.6,29.70,ESE,107,12.0,16.0,91,0.02,,BKN110,0.02,12.00,VWS V14.00,2013-03-03 23:38:00,
2013-03-03 17:43:00,33.8,31.5,29.70,ESE,109,9.0,16.0,91,0.02,,-RA,0.02,11.00,VWS V14.00,2013-03-03 23:43:00,
2013-03-03 17:48:00,33.6,31.3,29.70,East,100,10.0,16.0,91,0.03,,-RA,0.03,11.00,VWS V14.00,2013-03-03 23:48:00,
2013-03-03 17:53:00,33.3,31.2,29.71,ESE,105,10.0,16.0,92,0.03,,-RA,0.03,7.00,VWS V14.00,2013-03-03 23:53:00,
2013-03-03 17:58:00,33.1,31.0,29.71,ESE,111,11.0,16.0,92,0.03,,-RA,0.03,5.00,VWS V14.00,2013-03-03 23:58:00,
2013-03-03 18:03:00,33.1,31.3,29.71,ESE,105,12.0,17.0,93,0.04,,-RA,0.04,5.00,VWS V14.00,2013-03-04 00:03:00,
2013-03-03 18:08:00,33.0,31.2,29.71,ESE,108,14.0,17.0,93,0.05,,-RA,0.05,5.00,VWS V14.00,2013-03-04 00:08:00,
2013-03-03 18:13:00,33.0,31.2,29.71,ESE,103,15.0,17.0,93,0.05,,-RA,0.05,0.00,VWS V14.00,2013-03-04 00:13:00,
2013-03-03 18:18:00,32.8,31.0,29.71,ESE,111,12.0,17.0,93,0.06,,-RA,0.06,0.00,VWS V14.00,2013-03-04 00:18:00,
2013-03-03 18:23:00,32.7,30.9,29.72,ESE,118,11.0,17.0,93,0.06,,-RA,0.06,0.00,VWS V14.00,2013-03-04 00:23:00,
2013-03-03 18:28:00,32.5,30.7,29.72,ESE,118,11.0,15.0,93,0.06,,-RA,0.07,0.00,VWS V14.00,2013-03-04 00:28:00,
2013-03-03 18:33:00,32.4,30.6,29.72,SE,126,9.0,21.0,93,0.06,,-RA,0.07,0.00,VWS V14.00,2013-03-04 00:33:00,
2013-03-03 18:39:00,32.4,30.9,29.72,ESE,114,10.0,21.0,94,0.06,,-RA,0.07,0.00,VWS V14.00,2013-03-04 00:39:00,
2013-03-03 18:44:00,32.3,30.8,29.72,ESE,105,11.0,21.0,94,0.07,,-RA,0.08,0.00,VWS V14.00,2013-03-04 00:44:00,
2013-03-03 18:49:00,32.1,30.6,29.72,SE,124,10.0,21.0,94,0.07,,-RA,0.08,0.00,VWS V14.00,2013-03-04 00:49:00,
2013-03-03 18:54:00,32.0,30.5,29.72,ESE,114,13.0,21.0,94,0.07,,-RA,0.08,0.00,VWS V14.00,2013-03-04 00:54:00,
2013-03-03 18:59:00,31.9,30.4,29.72,ESE,117,15.0,16.0,94,0.06,,-RA,0.09,0.00,VWS V14.00,2013-03-04 00:59:00,
2013-03-03 19:04:00,31.9,30.4,29.72,ESE,120,12.0,16.0,94,0.06,,-RA,0.09,0.00,VWS V14.00,2013-03-04 01:04:00,
2013-03-03 19:09:00,31.7,30.2,29.71,ESE,103,13.0,16.0,94,0.06,,-RA,0.09,0.00,VWS V14.00,2013-03-04 01:09:00,
2013-03-03 19:14:00,31.7,30.2,29.72,ESE,110,15.0,16.0,94,0.06,,-RA,0.09,0.00,VWS V14.00,2013-03-04 01:14:00,
2013-03-03 19:19:00,31.6,30.1,29.71,SE,126,12.0,16.0,94,0.07,,-RA,0.10,0.00,VWS V14.00,2013-03-04 01:19:00,
2013-03-03 19:24:00,31.5,30.2,29.72,ESE,117,11.0,17.0,95,0.07,,-RA,0.10,0.00,VWS V14.00,2013-03-04 01:24:00,
2013-03-03 19:29:00,31.4,30.1,29.71,SE,126,14.0,17.0,95,0.03,,-RA,0.10,0.00,VWS V14.00,2013-03-04 01:29:00,
2013-03-03 19:34:00,31.4,30.1,29.71,ESE,115,15.0,19.0,95,0.04,,-RA,0.11,0.00,VWS V14.00,2013-03-04 01:34:00,
2013-03-03 19:39:00,31.3,30.0,29.71,ESE,121,11.0,19.0,95,0.04,,-RA,0.11,0.00,VWS V14.00,2013-03-04 01:39:00,
2013-03-03 19:44:00,31.2,29.9,29.71,ESE,119,10.0,20.0,95,0.04,,-RA,0.11,0.00,VWS V14.00,2013-03-04 01:44:00,
2013-03-03 19:49:00,31.2,29.9,29.71,SE,126,17.0,21.0,95,0.04,,-RA,0.11,0.00,VWS V14.00,2013-03-04 01:49:00,
2013-03-03 19:54:00,31.1,29.8,29.71,ESE,117,15.0,21.0,95,0.04,,-RA,0.11,0.00,VWS V14.00,2013-03-04 01:54:00,
2013-03-03 19:59:00,31.1,29.8,29.71,ESE,121,13.0,17.0,95,0.02,,-RA,0.11,0.00,VWS V14.00,2013-03-04 01:59:00,
2013-03-03 20:04:00,31.1,29.8,29.71,SE,127,12.0,18.0,95,0.02,,-RA,0.11,0.00,VWS V14.00,2013-03-04 02:04:00,
2013-03-03 20:09:00,31.0,29.7,29.72,ESE,123,15.0,18.0,95,0.02,,-RA,0.11,0.00,VWS V14.00,2013-03-04 02:09:00,
2013-03-03 20:14:00,31.0,29.7,29.72,ESE,123,14.0,18.0,95,0.02,,-RA,0.11,0.00,VWS V14.00,2013-03-04 02:14:00,
2013-03-03 20:19:00,31.0,29.7,29.71,SE,127,13.0,18.0,95,0.02,,-RA,0.11,0.00,VWS V14.00,2013-03-04 02:19:00,
2013-03-03 20:24:00,30.9,29.6,29.71,SE,128,14.0,18.0,95,0.02,,-RA,0.11,0.00,VWS V14.00,2013-03-04 02:24:00,
2013-03-03 20:29:00,31.0,29.7,29.71,ESE,120,14.0,16.0,95,0.01,,-RA,0.11,0.00,VWS V14.00,2013-03-04 02:29:00,
2013-03-03 20:34:00,30.9,29.6,29.71,ESE,122,15.0,18.0,95,0.01,,-RA,0.11,0.00,VWS V14.00,2013-03-04 02:34:00,
2013-03-03 20:39:00,30.9,29.6,29.70,ESE,121,16.0,18.0,95,0.01,,-RA,0.11,0.00,VWS V14.00,2013-03-04 02:39:00,
2013-03-03 20:45:00,31.0,29.7,29.70,SE,130,16.0,18.0,95,0.01,,,0.11,0.00,VWS V14.00,2013-03-04 02:45:00,
2013-03-03 20:50:00,30.9,29.6,29.70,SE,144,15.0,19.0,95,0.01,,,0.11,0.00,VWS V14.00,2013-03-04 02:50:00,
2013-03-03 20:55:00,31.0,29.7,29.70,ESE,123,15.0,19.0,95,0.01,,,0.11,0.00,VWS V14.00,2013-03-04 02:55:00,
2013-03-03 21:00:00,31.0,29.7,29.70,SE,129,15.0,17.0,95,0.00,,,0.11,0.00,VWS V14.00,2013-03-04 03:00:00,
2013-03-03 21:05:00,31.0,29.7,29.70,ESE,121,16.0,18.0,95,0.00,,,0.11,0.00,VWS V14.00,2013-03-04 03:05:00,
2013-03-03 21:10:00,31.0,29.7,29.70,SE,130,11.0,18.0,95,0.00,,,0.11,0.00,VWS V14.00,2013-03-04 03:10:00,
2013-03-03 21:15:00,31.1,29.8,29.69,SE,126,13.0,18.0,95,0.00,,,0.11,0.00,VWS V14.00,2013-03-04 03:15:00,
2013-03-03 21:20:00,31.1,29.8,29.69,SE,126,11.0,18.0,95,0.01,,,0.12,0.00,VWS V14.00,2013-03-04 03:20:00,
2013-03-03 21:25:00,31.1,29.8,29.69,SE,125,12.0,18.0,95,0.01,,,0.12,0.00,VWS V14.00,2013-03-04 03:25:00,
2013-03-03 21:30:00,31.2,29.9,29.69,SE,128,12.0,16.0,95,0.01,,,0.12,0.00,VWS V14.00,2013-03-04 03:30:00,
2013-03-03 21:35:00,31.2,29.9,29.68,ESE,113,13.0,16.0,95,0.01,,,0.12,0.00,VWS V14.00,2013-03-04 03:35:00,
2013-03-03 21:40:00,31.2,29.9,29.68,ESE,118,12.0,17.0,95,0.01,,,0.12,0.00,VWS V14.00,2013-03-04 03:40:00,
2013-03-03 21:45:00,31.2,29.9,29.68,ESE,121,13.0,17.0,95,0.01,,,0.12,0.00,VWS V14.00,2013-03-04 03:45:00,
2013-03-03 21:50:00,31.2,29.9,29.68,SE,124,12.0,17.0,95,0.01,,,0.12,0.00,VWS V14.00,2013-03-04 03:50:00,
2013-03-03 21:55:00,31.3,30.3,29.68,SE,124,9.0,17.0,96,0.01,,,0.12,0.00,VWS V14.00,2013-03-04 03:55:00,
2013-03-03 22:00:00,31.4,30.4,29.68,ESE,119,9.0,14.0,96,0.01,,,0.12,0.00,VWS V14.00,2013-03-04 04:00:00,
2013-03-03 22:05:00,31.4,30.4,29.68,SE,130,9.0,14.0,96,0.01,,,0.12,0.00,VWS V14.00,2013-03-04 04:05:00,
2013-03-03 22:10:00,31.4,30.4,29.68,SE,126,10.0,14.0,96,0.01,,,0.12,0.00,VWS V14.00,2013-03-04 04:10:00,
2013-03-03 22:16:00,31.5,30.5,29.68,SE,140,11.0,14.0,96,0.01,,,0.12,0.00,VWS V14.00,2013-03-04 04:16:00,
2013-03-03 22:21:00,31.4,30.4,29.68,SE,130,11.0,14.0,96,0.01,,,0.12,0.00,VWS V14.00,2013-03-04 04:21:00,
2013-03-03 22:26:00,31.5,30.5,29.68,SE,129,9.0,14.0,96,0.01,,,0.12,0.00,VWS V14.00,2013-03-04 04:26:00,
2013-03-03 22:31:00,31.5,30.5,29.68,SE,124,10.0,13.0,96,0.00,,,0.12,0.00,VWS V14.00,2013-03-04 04:31:00,
2013-03-03 22:36:00,31.6,30.6,29.67,SE,136,9.0,14.0,96,0.00,,,0.12,0.00,VWS V14.00,2013-03-04 04:36:00,
2013-03-03 22:41:00,31.6,30.6,29.67,SE,130,11.0,14.0,96,0.00,,,0.12,0.00,VWS V14.00,2013-03-04 04:41:00,
2013-03-03 22:46:00,31.7,30.7,29.67,SE,133,11.0,14.0,96,0.00,,,0.12,0.00,VWS V14.00,2013-03-04 04:46:00,
2013-03-03 22:51:00,31.7,30.7,29.67,SE,134,8.0,14.0,96,0.00,,,0.12,0.00,VWS V14.00,2013-03-04 04:51:00,
2013-03-03 22:56:00,31.7,30.7,29.68,SE,130,11.0,15.0,96,0.00,,,0.12,0.00,VWS V14.00,2013-03-04 04:56:00,
2013-03-03 23:00:00,31.7,30.7,29.68,SE,130,12.0,12.0,96,0.00,,,0.12,0.00,VWS V14.00,2013-03-04 05:00:00,
2013-03-03 23:02:00,31.8,30.8,29.67,SE,141,11.0,12.0,96,0.00,,,0.12,0.00,VWS V14.00,2013-03-04 05:02:00,
2013-03-03 23:05:00,31.7,30.7,29.67,SE,134,10.0,13.0,96,0.00,,,0.12,0.00,VWS V14.00,2013-03-04 05:05:00,
2013-03-03 23:06:00,31.7,30.7,29.67,SE,139,11.0,13.0,96,0.00,,,0.12,0.00,VWS V14.00,2013-03-04 05:06:00,
2013-03-03 23:11:00,31.7,30.7,29.67,SE,139,11.0,15.0,96,0.01,,,0.13,0.00,VWS V14.00,2013-03-04 05:11:00,
2013-03-03 23:16:00,31.7,30.7,29.67,SE,135,12.0,15.0,96,0.01,,,0.13,0.00,VWS V14.00,2013-03-04 05:16:00,
2013-03-03 23:21:00,31.7,30.7,29.67,SE,137,10.0,15.0,96,0.01,,,0.13,0.00,VWS V14.00,2013-03-04 05:21:00,
2013-03-03 23:26:00,31.7,30.7,29.67,ESE,121,14.0,15.0,96,0.01,,,0.13,0.00,VWS V14.00,2013-03-04 05:26:00,
2013-03-03 23:31:00,31.7,30.7,29.67,ESE,119,11.0,13.0,96,0.01,,,0.13,0.00,VWS V14.00,2013-03-04 05:31:00,
2013-03-03 23:36:00,31.7,30.7,29.67,SE,137,12.0,14.0,96,0.01,,,0.13,0.00,VWS V14.00,2013-03-04 05:36:00,
2013-03-03 23:41:00,31.7,30.7,29.67,SE,131,10.0,14.0,96,0.01,,,0.13,0.00,VWS V14.00,2013-03-04 05:41:00,
2013-03-03 23:46:00,31.7,30.7,29.67,SE,126,9.0,14.0,96,0.01,,,0.13,0.00,VWS V14.00,2013-03-04 05:46:00,
2013-03-03 23:51:00,31.7,30.7,29.67,SE,136,11.0,14.0,96,0.01,,-RA,0.13,0.00,VWS V14.00,2013-03-04 05:51:00,
2013-03-03 23:56:00,31.7,30.7,29.67,SE,142,10.0,14.0,96,0.02,,-RA,0.14,0.00,VWS V14.00,2013-03-04 05:56:00,